sensor_id;sensor_type;location;lat;lon;timestamp;pressure;altitude;pressure_sealevel;temperature;humidity
75247;BME280;63844;50.042;19.224;2024-01-16T00:00:48;97306.03;;;-1.04;88.03
75247;BME280;63844;50.042;19.224;2024-01-16T00:02:44;97304.46;;;-1.00;88.31
75247;BME280;63844;50.042;19.224;2024-01-16T00:04:21;97300.29;;;-1.00;88.20
75247;BME280;63844;50.042;19.224;2024-01-16T00:05:58;97300.34;;;-1.01;88.48
75247;BME280;63844;50.042;19.224;2024-01-16T00:07:38;97302.40;;;-1.04;88.99
75247;BME280;63844;50.042;19.224;2024-01-16T00:09:15;97303.33;;;-1.02;88.90
75247;BME280;63844;50.042;19.224;2024-01-16T00:10:51;97312.73;;;-1.03;88.84
75247;BME280;63844;50.042;19.224;2024-01-16T00:12:28;97315.04;;;-1.03;88.95
75247;BME280;63844;50.042;19.224;2024-01-16T00:14:04;97318.44;;;-1.05;89.06
75247;BME280;63844;50.042;19.224;2024-01-16T00:15:41;97324.53;;;-1.05;89.27
75247;BME280;63844;50.042;19.224;2024-01-16T00:17:18;97322.09;;;-1.05;89.45
75247;BME280;63844;50.042;19.224;2024-01-16T00:18:54;97325.17;;;-1.08;89.77
75247;BME280;63844;50.042;19.224;2024-01-16T00:20:30;97334.83;;;-1.11;90.09
75247;BME280;63844;50.042;19.224;2024-01-16T00:22:07;97330.88;;;-1.12;90.24
75247;BME280;63844;50.042;19.224;2024-01-16T00:23:43;97341.09;;;-1.15;90.75
75247;BME280;63844;50.042;19.224;2024-01-16T00:25:20;97336.55;;;-1.18;91.08
75247;BME280;63844;50.042;19.224;2024-01-16T00:26:56;97342.94;;;-1.21;92.06
75247;BME280;63844;50.042;19.224;2024-01-16T00:28:33;97339.79;;;-1.25;93.39
75247;BME280;63844;50.042;19.224;2024-01-16T00:30:10;97343.53;;;-1.31;94.90
75247;BME280;63844;50.042;19.224;2024-01-16T00:31:46;97345.45;;;-1.35;95.68
75247;BME280;63844;50.042;19.224;2024-01-16T00:33:23;97351.99;;;-1.37;95.89
75247;BME280;63844;50.042;19.224;2024-01-16T00:35:00;97356.67;;;-1.41;96.63
75247;BME280;63844;50.042;19.224;2024-01-16T00:36:36;97353.34;;;-1.44;97.15
75247;BME280;63844;50.042;19.224;2024-01-16T00:38:13;97354.63;;;-1.46;97.28
75247;BME280;63844;50.042;19.224;2024-01-16T00:39:49;97356.66;;;-1.48;97.93
75247;BME280;63844;50.042;19.224;2024-01-16T00:41:26;97356.58;;;-1.50;98.30
75247;BME280;63844;50.042;19.224;2024-01-16T00:43:03;97355.69;;;-1.50;98.15
75247;BME280;63844;50.042;19.224;2024-01-16T00:44:39;97359.39;;;-1.51;98.67
75247;BME280;63844;50.042;19.224;2024-01-16T00:46:16;97358.58;;;-1.53;99.11
75247;BME280;63844;50.042;19.224;2024-01-16T00:47:52;97358.73;;;-1.52;99.10
75247;BME280;63844;50.042;19.224;2024-01-16T00:49:29;97359.23;;;-1.52;98.55
75247;BME280;63844;50.042;19.224;2024-01-16T00:51:05;97357.67;;;-1.52;98.67
75247;BME280;63844;50.042;19.224;2024-01-16T00:52:42;97362.88;;;-1.52;99.09
75247;BME280;63844;50.042;19.224;2024-01-16T00:54:18;97362.98;;;-1.50;98.61
75247;BME280;63844;50.042;19.224;2024-01-16T00:55:54;97367.31;;;-1.50;98.51
75247;BME280;63844;50.042;19.224;2024-01-16T00:57:31;97370.63;;;-1.50;98.29
75247;BME280;63844;50.042;19.224;2024-01-16T00:59:07;97371.52;;;-1.51;98.14
75247;BME280;63844;50.042;19.224;2024-01-16T01:00:44;97370.77;;;-1.50;97.82
75247;BME280;63844;50.042;19.224;2024-01-16T01:02:20;97372.35;;;-1.50;98.31
75247;BME280;63844;50.042;19.224;2024-01-16T01:03:56;97374.20;;;-1.49;97.81
75247;BME280;63844;50.042;19.224;2024-01-16T01:05:33;97375.07;;;-1.49;97.67
75247;BME280;63844;50.042;19.224;2024-01-16T01:07:12;97376.11;;;-1.49;97.75
75247;BME280;63844;50.042;19.224;2024-01-16T01:08:49;97375.00;;;-1.47;97.94
75247;BME280;63844;50.042;19.224;2024-01-16T01:10:25;97375.83;;;-1.46;97.65
75247;BME280;63844;50.042;19.224;2024-01-16T01:12:02;97378.73;;;-1.45;97.31
75247;BME280;63844;50.042;19.224;2024-01-16T01:13:38;97376.93;;;-1.44;97.37
75247;BME280;63844;50.042;19.224;2024-01-16T01:15:15;97376.04;;;-1.43;97.07
75247;BME280;63844;50.042;19.224;2024-01-16T01:16:52;97375.13;;;-1.42;96.95
75247;BME280;63844;50.042;19.224;2024-01-16T01:18:28;97377.31;;;-1.41;96.82
75247;BME280;63844;50.042;19.224;2024-01-16T01:20:06;97381.93;;;-1.40;96.17
75247;BME280;63844;50.042;19.224;2024-01-16T01:21:43;97382.53;;;-1.37;95.85
75247;BME280;63844;50.042;19.224;2024-01-16T01:23:19;97382.33;;;-1.37;95.79
75247;BME280;63844;50.042;19.224;2024-01-16T01:24:55;97385.36;;;-1.34;95.33
75247;BME280;63844;50.042;19.224;2024-01-16T01:26:32;97388.59;;;-1.33;94.98
75247;BME280;63844;50.042;19.224;2024-01-16T01:28:08;97389.77;;;-1.32;94.69
75247;BME280;63844;50.042;19.224;2024-01-16T01:29:45;97393.52;;;-1.31;94.62
75247;BME280;63844;50.042;19.224;2024-01-16T01:31:22;97401.59;;;-1.28;94.21
75247;BME280;63844;50.042;19.224;2024-01-16T01:32:59;97397.89;;;-1.27;94.30
75247;BME280;63844;50.042;19.224;2024-01-16T01:34:35;97397.19;;;-1.27;94.11
75247;BME280;63844;50.042;19.224;2024-01-16T01:36:12;97392.90;;;-1.28;94.39
75247;BME280;63844;50.042;19.224;2024-01-16T01:37:48;97394.44;;;-1.28;94.21
75247;BME280;63844;50.042;19.224;2024-01-16T01:39:25;97397.56;;;-1.28;93.86
75247;BME280;63844;50.042;19.224;2024-01-16T01:41:02;97398.02;;;-1.27;93.59
75247;BME280;63844;50.042;19.224;2024-01-16T01:42:40;97392.97;;;-1.22;93.06
75247;BME280;63844;50.042;19.224;2024-01-16T01:44:17;97392.87;;;-1.24;92.57
75247;BME280;63844;50.042;19.224;2024-01-16T01:46:07;97386.20;;;-1.22;92.70
75247;BME280;63844;50.042;19.224;2024-01-16T01:47:45;97387.33;;;-1.20;91.84
75247;BME280;63844;50.042;19.224;2024-01-16T01:49:21;97385.37;;;-1.19;91.47
75247;BME280;63844;50.042;19.224;2024-01-16T01:51:00;97383.85;;;-1.17;91.18
75247;BME280;63844;50.042;19.224;2024-01-16T01:52:39;97381.86;;;-1.15;90.64
75247;BME280;63844;50.042;19.224;2024-01-16T01:54:17;97380.66;;;-1.15;90.37
75247;BME280;63844;50.042;19.224;2024-01-16T01:55:55;97384.63;;;-1.15;90.53
75247;BME280;63844;50.042;19.224;2024-01-16T01:57:33;97386.98;;;-1.16;90.32
75247;BME280;63844;50.042;19.224;2024-01-16T01:59:10;97390.05;;;-1.16;90.40
75247;BME280;63844;50.042;19.224;2024-01-16T02:00:47;97391.02;;;-1.18;90.16
75247;BME280;63844;50.042;19.224;2024-01-16T02:02:24;97397.44;;;-1.21;90.13
75247;BME280;63844;50.042;19.224;2024-01-16T02:04:01;97397.95;;;-1.21;90.04
75247;BME280;63844;50.042;19.224;2024-01-16T02:05:39;97400.94;;;-1.22;89.83
75247;BME280;63844;50.042;19.224;2024-01-16T02:07:15;97403.04;;;-1.22;89.91
75247;BME280;63844;50.042;19.224;2024-01-16T02:08:52;97403.30;;;-1.24;89.94
75247;BME280;63844;50.042;19.224;2024-01-16T02:10:29;97400.42;;;-1.26;89.77
75247;BME280;63844;50.042;19.224;2024-01-16T02:12:06;97400.14;;;-1.27;89.81
75247;BME280;63844;50.042;19.224;2024-01-16T02:13:43;97402.23;;;-1.28;89.82
75247;BME280;63844;50.042;19.224;2024-01-16T02:15:20;97406.82;;;-1.29;89.56
75247;BME280;63844;50.042;19.224;2024-01-16T02:16:56;97401.17;;;-1.27;89.31
75247;BME280;63844;50.042;19.224;2024-01-16T02:18:33;97402.81;;;-1.29;89.28
75247;BME280;63844;50.042;19.224;2024-01-16T02:20:09;97406.14;;;-1.29;88.97
75247;BME280;63844;50.042;19.224;2024-01-16T02:21:48;97401.62;;;-1.29;88.90
75247;BME280;63844;50.042;19.224;2024-01-16T02:23:26;97407.34;;;-1.29;88.61
75247;BME280;63844;50.042;19.224;2024-01-16T02:25:04;97409.39;;;-1.28;88.65
75247;BME280;63844;50.042;19.224;2024-01-16T02:26:41;97410.01;;;-1.26;88.09
75247;BME280;63844;50.042;19.224;2024-01-16T02:28:18;97409.80;;;-1.26;87.84
75247;BME280;63844;50.042;19.224;2024-01-16T02:29:54;97415.92;;;-1.27;87.73
75247;BME280;63844;50.042;19.224;2024-01-16T02:31:32;97415.71;;;-1.26;87.79
75247;BME280;63844;50.042;19.224;2024-01-16T02:33:09;97418.61;;;-1.25;87.55
75247;BME280;63844;50.042;19.224;2024-01-16T02:34:45;97423.11;;;-1.21;87.52
75247;BME280;63844;50.042;19.224;2024-01-16T02:36:21;97421.06;;;-1.18;87.34
75247;BME280;63844;50.042;19.224;2024-01-16T02:37:58;97424.28;;;-1.20;87.06
75247;BME280;63844;50.042;19.224;2024-01-16T02:39:36;97424.21;;;-1.18;87.17
75247;BME280;63844;50.042;19.224;2024-01-16T02:41:13;97421.70;;;-1.21;87.11
75247;BME280;63844;50.042;19.224;2024-01-16T02:42:50;97426.74;;;-1.21;87.10
75247;BME280;63844;50.042;19.224;2024-01-16T02:44:27;97428.34;;;-1.21;87.19
75247;BME280;63844;50.042;19.224;2024-01-16T02:46:03;97426.10;;;-1.21;87.18
75247;BME280;63844;50.042;19.224;2024-01-16T02:47:40;97422.54;;;-1.23;87.28
75247;BME280;63844;50.042;19.224;2024-01-16T02:49:16;97426.69;;;-1.23;87.27
75247;BME280;63844;50.042;19.224;2024-01-16T02:50:53;97428.83;;;-1.24;87.34
75247;BME280;63844;50.042;19.224;2024-01-16T02:52:29;97433.43;;;-1.23;87.30
75247;BME280;63844;50.042;19.224;2024-01-16T02:54:07;97432.19;;;-1.22;87.24
75247;BME280;63844;50.042;19.224;2024-01-16T02:55:44;97434.52;;;-1.24;87.52
75247;BME280;63844;50.042;19.224;2024-01-16T02:57:20;97435.15;;;-1.26;87.80
75247;BME280;63844;50.042;19.224;2024-01-16T02:58:57;97431.77;;;-1.28;88.07
75247;BME280;63844;50.042;19.224;2024-01-16T03:00:33;97430.88;;;-1.28;88.06
75247;BME280;63844;50.042;19.224;2024-01-16T03:02:09;97423.75;;;-1.28;88.20
75247;BME280;63844;50.042;19.224;2024-01-16T03:03:46;97427.64;;;-1.29;88.47
75247;BME280;63844;50.042;19.224;2024-01-16T03:05:22;97431.00;;;-1.31;88.76
75247;BME280;63844;50.042;19.224;2024-01-16T03:06:59;97439.88;;;-1.31;88.80
75247;BME280;63844;50.042;19.224;2024-01-16T03:08:35;97438.73;;;-1.33;88.92
75247;BME280;63844;50.042;19.224;2024-01-16T03:10:12;97434.14;;;-1.35;89.35
75247;BME280;63844;50.042;19.224;2024-01-16T03:11:48;97435.73;;;-1.35;89.64
75247;BME280;63844;50.042;19.224;2024-01-16T03:13:25;97433.33;;;-1.36;89.63
75247;BME280;63844;50.042;19.224;2024-01-16T03:15:01;97431.26;;;-1.37;89.68
75247;BME280;63844;50.042;19.224;2024-01-16T03:16:38;97437.19;;;-1.37;89.96
75247;BME280;63844;50.042;19.224;2024-01-16T03:18:14;97441.02;;;-1.37;90.42
75247;BME280;63844;50.042;19.224;2024-01-16T03:19:50;97442.66;;;-1.35;90.26
75247;BME280;63844;50.042;19.224;2024-01-16T03:21:27;97442.59;;;-1.33;90.07
75247;BME280;63844;50.042;19.224;2024-01-16T03:23:04;97441.69;;;-1.32;90.22
75247;BME280;63844;50.042;19.224;2024-01-16T03:24:40;97440.96;;;-1.32;90.30
75247;BME280;63844;50.042;19.224;2024-01-16T03:26:16;97441.54;;;-1.30;90.08
75247;BME280;63844;50.042;19.224;2024-01-16T03:27:53;97439.08;;;-1.29;90.19
75247;BME280;63844;50.042;19.224;2024-01-16T03:29:30;97439.81;;;-1.26;89.78
75247;BME280;63844;50.042;19.224;2024-01-16T03:31:09;97437.56;;;-1.22;89.45
75247;BME280;63844;50.042;19.224;2024-01-16T03:32:45;97440.39;;;-1.19;88.94
75247;BME280;63844;50.042;19.224;2024-01-16T03:34:23;97442.99;;;-1.15;88.66
75247;BME280;63844;50.042;19.224;2024-01-16T03:35:59;97443.69;;;-1.11;88.34
75247;BME280;63844;50.042;19.224;2024-01-16T03:37:37;97437.33;;;-1.08;88.35
75247;BME280;63844;50.042;19.224;2024-01-16T03:39:15;97438.63;;;-1.06;88.25
75247;BME280;63844;50.042;19.224;2024-01-16T03:40:51;97440.19;;;-1.03;87.96
75247;BME280;63844;50.042;19.224;2024-01-16T03:42:28;97441.52;;;-1.01;87.84
75247;BME280;63844;50.042;19.224;2024-01-16T03:44:04;97439.69;;;-0.99;87.62
75247;BME280;63844;50.042;19.224;2024-01-16T03:45:41;97442.44;;;-0.98;87.50
75247;BME280;63844;50.042;19.224;2024-01-16T03:47:17;97444.67;;;-0.94;87.33
75247;BME280;63844;50.042;19.224;2024-01-16T03:48:54;97449.75;;;-0.91;87.03
75247;BME280;63844;50.042;19.224;2024-01-16T03:50:30;97454.70;;;-0.89;86.93
75247;BME280;63844;50.042;19.224;2024-01-16T03:52:07;97460.37;;;-0.88;87.01
75247;BME280;63844;50.042;19.224;2024-01-16T03:53:43;97464.30;;;-0.86;86.87
75247;BME280;63844;50.042;19.224;2024-01-16T03:55:20;97469.02;;;-0.83;86.82
75247;BME280;63844;50.042;19.224;2024-01-16T03:56:57;97478.20;;;-0.83;86.99
75247;BME280;63844;50.042;19.224;2024-01-16T03:58:33;97480.03;;;-0.81;87.59
75247;BME280;63844;50.042;19.224;2024-01-16T04:00:13;97475.05;;;-0.82;88.02
75247;BME280;63844;50.042;19.224;2024-01-16T04:01:50;97482.83;;;-0.85;88.45
75247;BME280;63844;50.042;19.224;2024-01-16T04:03:26;97487.35;;;-0.89;88.89
75247;BME280;63844;50.042;19.224;2024-01-16T04:05:03;97491.75;;;-0.91;89.07
75247;BME280;63844;50.042;19.224;2024-01-16T04:06:40;97488.80;;;-0.91;89.17
75247;BME280;63844;50.042;19.224;2024-01-16T04:08:16;97486.91;;;-0.91;89.27
75247;BME280;63844;50.042;19.224;2024-01-16T04:09:53;97493.47;;;-0.90;89.30
75247;BME280;63844;50.042;19.224;2024-01-16T04:11:29;97495.19;;;-0.90;89.40
75247;BME280;63844;50.042;19.224;2024-01-16T04:13:06;97501.55;;;-0.92;89.82
75247;BME280;63844;50.042;19.224;2024-01-16T04:14:42;97498.07;;;-0.92;89.89
75247;BME280;63844;50.042;19.224;2024-01-16T04:16:19;97505.46;;;-0.95;90.21
75247;BME280;63844;50.042;19.224;2024-01-16T04:17:55;97513.46;;;-0.95;90.11
75247;BME280;63844;50.042;19.224;2024-01-16T04:19:31;97522.85;;;-0.91;89.93
75247;BME280;63844;50.042;19.224;2024-01-16T04:21:10;97522.77;;;-0.89;89.70
75247;BME280;63844;50.042;19.224;2024-01-16T04:22:46;97529.79;;;-0.91;89.96
75247;BME280;63844;50.042;19.224;2024-01-16T04:24:23;97531.23;;;-0.92;90.26
75247;BME280;63844;50.042;19.224;2024-01-16T04:25:59;97532.92;;;-0.91;90.53
75247;BME280;63844;50.042;19.224;2024-01-16T04:27:36;97538.16;;;-0.96;91.41
75247;BME280;63844;50.042;19.224;2024-01-16T04:29:12;97541.94;;;-0.99;92.11
75247;BME280;63844;50.042;19.224;2024-01-16T04:30:50;97539.77;;;-1.01;92.05
75247;BME280;63844;50.042;19.224;2024-01-16T04:32:27;97538.77;;;-1.06;92.28
75247;BME280;63844;50.042;19.224;2024-01-16T04:34:03;97542.22;;;-1.09;92.29
75247;BME280;63844;50.042;19.224;2024-01-16T04:35:39;97544.12;;;-1.13;92.34
75247;BME280;63844;50.042;19.224;2024-01-16T04:37:16;97544.61;;;-1.17;92.43
75247;BME280;63844;50.042;19.224;2024-01-16T04:38:52;97542.63;;;-1.19;92.49
75247;BME280;63844;50.042;19.224;2024-01-16T04:40:28;97551.98;;;-1.23;92.82
75247;BME280;63844;50.042;19.224;2024-01-16T04:42:05;97550.92;;;-1.22;92.66
75247;BME280;63844;50.042;19.224;2024-01-16T04:43:41;97552.92;;;-1.24;92.68
75247;BME280;63844;50.042;19.224;2024-01-16T04:45:18;97562.73;;;-1.22;92.40
75247;BME280;63844;50.042;19.224;2024-01-16T04:46:54;97561.77;;;-1.20;91.95
75247;BME280;63844;50.042;19.224;2024-01-16T04:48:30;97562.03;;;-1.18;91.83
75247;BME280;63844;50.042;19.224;2024-01-16T04:50:07;97563.89;;;-1.17;91.57
75247;BME280;63844;50.042;19.224;2024-01-16T04:51:44;97569.30;;;-1.18;91.35
75247;BME280;63844;50.042;19.224;2024-01-16T04:53:20;97570.96;;;-1.16;91.04
75247;BME280;63844;50.042;19.224;2024-01-16T04:54:57;97573.72;;;-1.11;90.88
75247;BME280;63844;50.042;19.224;2024-01-16T04:56:33;97576.66;;;-1.11;90.69
75247;BME280;63844;50.042;19.224;2024-01-16T04:58:09;97580.91;;;-1.13;90.78
75247;BME280;63844;50.042;19.224;2024-01-16T04:59:46;97583.11;;;-1.11;90.53
75247;BME280;63844;50.042;19.224;2024-01-16T05:01:23;97586.55;;;-1.11;90.21
75247;BME280;63844;50.042;19.224;2024-01-16T05:03:00;97585.31;;;-1.10;90.08
75247;BME280;63844;50.042;19.224;2024-01-16T05:04:39;97587.70;;;-1.09;90.09
75247;BME280;63844;50.042;19.224;2024-01-16T05:06:16;97587.36;;;-1.09;89.79
75247;BME280;63844;50.042;19.224;2024-01-16T05:07:53;97585.76;;;-1.08;89.69
75247;BME280;63844;50.042;19.224;2024-01-16T05:09:29;97589.44;;;-1.09;89.70
75247;BME280;63844;50.042;19.224;2024-01-16T05:11:06;97589.80;;;-1.10;89.81
75247;BME280;63844;50.042;19.224;2024-01-16T05:12:42;97590.77;;;-1.12;90.12
75247;BME280;63844;50.042;19.224;2024-01-16T05:14:19;97592.87;;;-1.17;90.46
75247;BME280;63844;50.042;19.224;2024-01-16T05:15:55;97593.17;;;-1.20;90.73
75247;BME280;63844;50.042;19.224;2024-01-16T05:17:33;97595.63;;;-1.21;90.98
75247;BME280;63844;50.042;19.224;2024-01-16T05:19:09;97596.56;;;-1.22;91.33
75247;BME280;63844;50.042;19.224;2024-01-16T05:20:45;97597.98;;;-1.23;91.59
75247;BME280;63844;50.042;19.224;2024-01-16T05:22:22;97601.47;;;-1.23;91.88
75247;BME280;63844;50.042;19.224;2024-01-16T05:23:59;97605.27;;;-1.23;91.92
75247;BME280;63844;50.042;19.224;2024-01-16T05:25:35;97604.73;;;-1.22;91.95
75247;BME280;63844;50.042;19.224;2024-01-16T05:27:12;97604.05;;;-1.22;92.07
75247;BME280;63844;50.042;19.224;2024-01-16T05:28:48;97598.86;;;-1.23;92.07
75247;BME280;63844;50.042;19.224;2024-01-16T05:30:24;97594.06;;;-1.21;92.06
75247;BME280;63844;50.042;19.224;2024-01-16T05:32:01;97597.48;;;-1.19;91.89
75247;BME280;63844;50.042;19.224;2024-01-16T05:33:37;97604.07;;;-1.19;91.91
75247;BME280;63844;50.042;19.224;2024-01-16T05:35:14;97608.00;;;-1.18;91.96
75247;BME280;63844;50.042;19.224;2024-01-16T05:36:50;97617.84;;;-1.16;91.88
75247;BME280;63844;50.042;19.224;2024-01-16T05:38:27;97630.77;;;-1.14;91.77
75247;BME280;63844;50.042;19.224;2024-01-16T05:40:04;97641.10;;;-1.11;91.78
75247;BME280;63844;50.042;19.224;2024-01-16T05:41:42;97646.02;;;-1.08;91.91
75247;BME280;63844;50.042;19.224;2024-01-16T05:43:18;97652.23;;;-1.12;92.95
75247;BME280;63844;50.042;19.224;2024-01-16T05:44:55;97651.39;;;-1.17;94.55
75247;BME280;63844;50.042;19.224;2024-01-16T05:46:31;97654.76;;;-1.23;95.48
75247;BME280;63844;50.042;19.224;2024-01-16T05:48:08;97656.73;;;-1.29;96.39
75247;BME280;63844;50.042;19.224;2024-01-16T05:49:45;97654.02;;;-1.35;97.72
75247;BME280;63844;50.042;19.224;2024-01-16T05:51:21;97650.70;;;-1.39;98.30
75247;BME280;63844;50.042;19.224;2024-01-16T05:52:57;97653.64;;;-1.43;98.91
75247;BME280;63844;50.042;19.224;2024-01-16T05:54:34;97655.28;;;-1.45;99.42
75247;BME280;63844;50.042;19.224;2024-01-16T05:56:10;97658.31;;;-1.47;99.61
75247;BME280;63844;50.042;19.224;2024-01-16T05:57:47;97664.56;;;-1.47;99.33
75247;BME280;63844;50.042;19.224;2024-01-16T05:59:23;97662.02;;;-1.48;99.18
75247;BME280;63844;50.042;19.224;2024-01-16T06:01:00;97666.18;;;-1.49;99.12
75247;BME280;63844;50.042;19.224;2024-01-16T06:02:36;97667.95;;;-1.49;99.69
75247;BME280;63844;50.042;19.224;2024-01-16T06:04:12;97672.48;;;-1.50;99.68
75247;BME280;63844;50.042;19.224;2024-01-16T06:05:49;97681.39;;;-1.51;100.00
75247;BME280;63844;50.042;19.224;2024-01-16T06:07:25;97682.01;;;-1.49;99.81
75247;BME280;63844;50.042;19.224;2024-01-16T06:09:02;97685.11;;;-1.53;100.00
75247;BME280;63844;50.042;19.224;2024-01-16T06:10:41;97687.39;;;-1.54;100.00
75247;BME280;63844;50.042;19.224;2024-01-16T06:12:17;97679.98;;;-1.56;100.00
75247;BME280;63844;50.042;19.224;2024-01-16T06:13:54;97685.95;;;-1.57;100.00
75247;BME280;63844;50.042;19.224;2024-01-16T06:15:30;97684.38;;;-1.57;100.00
75247;BME280;63844;50.042;19.224;2024-01-16T06:17:07;97683.68;;;-1.57;100.00
75247;BME280;63844;50.042;19.224;2024-01-16T06:18:43;97688.05;;;-1.57;100.00
75247;BME280;63844;50.042;19.224;2024-01-16T06:20:19;97692.91;;;-1.58;100.00
75247;BME280;63844;50.042;19.224;2024-01-16T06:21:56;97693.29;;;-1.59;100.00
75247;BME280;63844;50.042;19.224;2024-01-16T06:23:33;97698.52;;;-1.59;100.00
75247;BME280;63844;50.042;19.224;2024-01-16T06:25:09;97701.08;;;-1.59;100.00
75247;BME280;63844;50.042;19.224;2024-01-16T06:26:45;97700.27;;;-1.60;100.00
75247;BME280;63844;50.042;19.224;2024-01-16T06:28:22;97703.43;;;-1.61;100.00
75247;BME280;63844;50.042;19.224;2024-01-16T06:29:58;97709.52;;;-1.62;100.00
75247;BME280;63844;50.042;19.224;2024-01-16T06:31:35;97712.11;;;-1.61;100.00
75247;BME280;63844;50.042;19.224;2024-01-16T06:33:11;97714.86;;;-1.61;100.00
75247;BME280;63844;50.042;19.224;2024-01-16T06:34:48;97716.10;;;-1.61;100.00
75247;BME280;63844;50.042;19.224;2024-01-16T06:36:24;97717.95;;;-1.60;100.00
75247;BME280;63844;50.042;19.224;2024-01-16T06:38:01;97719.41;;;-1.62;100.00
75247;BME280;63844;50.042;19.224;2024-01-16T06:39:38;97717.98;;;-1.61;100.00
75247;BME280;63844;50.042;19.224;2024-01-16T06:41:15;97718.27;;;-1.59;100.00
75247;BME280;63844;50.042;19.224;2024-01-16T06:42:52;97718.55;;;-1.57;100.00
75247;BME280;63844;50.042;19.224;2024-01-16T06:44:28;97724.66;;;-1.54;100.00
75247;BME280;63844;50.042;19.224;2024-01-16T06:46:05;97724.95;;;-1.52;100.00
75247;BME280;63844;50.042;19.224;2024-01-16T06:47:41;97724.38;;;-1.51;100.00
75247;BME280;63844;50.042;19.224;2024-01-16T06:49:18;97729.39;;;-1.50;100.00
75247;BME280;63844;50.042;19.224;2024-01-16T06:50:55;97736.30;;;-1.49;100.00
75247;BME280;63844;50.042;19.224;2024-01-16T06:52:31;97740.59;;;-1.48;100.00
75247;BME280;63844;50.042;19.224;2024-01-16T06:54:08;97740.95;;;-1.48;100.00
75247;BME280;63844;50.042;19.224;2024-01-16T06:55:44;97745.41;;;-1.47;100.00
75247;BME280;63844;50.042;19.224;2024-01-16T06:57:21;97741.52;;;-1.45;100.00
75247;BME280;63844;50.042;19.224;2024-01-16T06:58:57;97740.06;;;-1.43;100.00
75247;BME280;63844;50.042;19.224;2024-01-16T07:00:34;97735.90;;;-1.43;100.00
75247;BME280;63844;50.042;19.224;2024-01-16T07:02:11;97738.27;;;-1.42;100.00
75247;BME280;63844;50.042;19.224;2024-01-16T07:03:47;97741.48;;;-1.40;100.00
75247;BME280;63844;50.042;19.224;2024-01-16T07:05:24;97744.70;;;-1.38;100.00
75247;BME280;63844;50.042;19.224;2024-01-16T07:07:00;97756.10;;;-1.36;100.00
75247;BME280;63844;50.042;19.224;2024-01-16T07:08:37;97755.36;;;-1.35;100.00
75247;BME280;63844;50.042;19.224;2024-01-16T07:10:13;97756.88;;;-1.34;100.00
75247;BME280;63844;50.042;19.224;2024-01-16T07:11:54;97754.63;;;-1.34;100.00
75247;BME280;63844;50.042;19.224;2024-01-16T07:13:30;97754.20;;;-1.32;100.00
75247;BME280;63844;50.042;19.224;2024-01-16T07:15:07;97752.95;;;-1.31;99.80
75247;BME280;63844;50.042;19.224;2024-01-16T07:16:44;97751.34;;;-1.30;99.75
75247;BME280;63844;50.042;19.224;2024-01-16T07:18:21;97751.00;;;-1.29;99.77
75247;BME280;63844;50.042;19.224;2024-01-16T07:19:57;97751.41;;;-1.27;99.50
75247;BME280;63844;50.042;19.224;2024-01-16T07:21:35;97763.39;;;-1.27;99.52
75247;BME280;63844;50.042;19.224;2024-01-16T07:23:11;97770.98;;;-1.26;99.42
75247;BME280;63844;50.042;19.224;2024-01-16T07:24:48;97769.88;;;-1.24;99.28
75247;BME280;63844;50.042;19.224;2024-01-16T07:26:24;97775.40;;;-1.23;98.93
75247;BME280;63844;50.042;19.224;2024-01-16T07:28:01;97780.27;;;-1.24;98.36
75247;BME280;63844;50.042;19.224;2024-01-16T07:29:38;97784.62;;;-1.24;98.19
75247;BME280;63844;50.042;19.224;2024-01-16T07:31:15;97789.18;;;-1.21;97.65
75247;BME280;63844;50.042;19.224;2024-01-16T07:32:56;97790.27;;;-1.17;97.27
75247;BME280;63844;50.042;19.224;2024-01-16T07:34:32;97790.45;;;-1.18;97.05
75247;BME280;63844;50.042;19.224;2024-01-16T07:36:09;97793.30;;;-1.15;96.56
75247;BME280;63844;50.042;19.224;2024-01-16T07:37:46;97792.84;;;-1.12;96.31
75247;BME280;63844;50.042;19.224;2024-01-16T07:39:22;97797.86;;;-1.11;95.68
75247;BME280;63844;50.042;19.224;2024-01-16T07:40:59;97806.06;;;-1.08;94.98
75247;BME280;63844;50.042;19.224;2024-01-16T07:42:36;97811.63;;;-1.03;94.56
75247;BME280;63844;50.042;19.224;2024-01-16T07:44:12;97810.23;;;-0.99;93.63
75247;BME280;63844;50.042;19.224;2024-01-16T07:45:49;97814.00;;;-0.93;92.87
75247;BME280;63844;50.042;19.224;2024-01-16T07:47:26;97819.58;;;-0.89;92.09
75247;BME280;63844;50.042;19.224;2024-01-16T07:49:02;97831.52;;;-0.83;91.34
75247;BME280;63844;50.042;19.224;2024-01-16T07:50:39;97830.51;;;-0.80;90.98
75247;BME280;63844;50.042;19.224;2024-01-16T07:52:15;97828.48;;;-0.77;91.03
75247;BME280;63844;50.042;19.224;2024-01-16T07:54:04;97829.60;;;-0.79;90.42
75247;BME280;63844;50.042;19.224;2024-01-16T07:55:42;97831.48;;;-0.82;90.25
75247;BME280;63844;50.042;19.224;2024-01-16T07:57:19;97837.22;;;-0.87;89.56
75247;BME280;63844;50.042;19.224;2024-01-16T07:58:55;97838.59;;;-0.87;89.58
75247;BME280;63844;50.042;19.224;2024-01-16T08:00:32;97842.91;;;-0.86;89.36
75247;BME280;63844;50.042;19.224;2024-01-16T08:02:08;97841.21;;;-0.87;88.82
75247;BME280;63844;50.042;19.224;2024-01-16T08:03:45;97849.42;;;-0.84;88.87
75247;BME280;63844;50.042;19.224;2024-01-16T08:05:22;97847.81;;;-0.83;88.61
75247;BME280;63844;50.042;19.224;2024-01-16T08:07:01;97844.25;;;-0.81;88.16
75247;BME280;63844;50.042;19.224;2024-01-16T08:08:38;97849.50;;;-0.77;88.00
75247;BME280;63844;50.042;19.224;2024-01-16T08:10:14;97854.63;;;-0.75;87.60
75247;BME280;63844;50.042;19.224;2024-01-16T08:11:51;97851.36;;;-0.71;87.41
75247;BME280;63844;50.042;19.224;2024-01-16T08:13:28;97851.65;;;-0.65;86.90
75247;BME280;63844;50.042;19.224;2024-01-16T08:15:05;97857.04;;;-0.65;86.52
75247;BME280;63844;50.042;19.224;2024-01-16T08:16:44;97858.05;;;-0.60;86.36
75247;BME280;63844;50.042;19.224;2024-01-16T08:18:20;97862.35;;;-0.50;86.49
75247;BME280;63844;50.042;19.224;2024-01-16T08:19:56;97857.38;;;-0.43;85.35
75247;BME280;63844;50.042;19.224;2024-01-16T08:21:33;97860.77;;;-0.37;85.39
75247;BME280;63844;50.042;19.224;2024-01-16T08:23:09;97869.46;;;-0.37;84.87
75247;BME280;63844;50.042;19.224;2024-01-16T08:24:46;97871.09;;;-0.34;84.18